New York, New York
Traffic Map
Current Weather Conditions
New York, New York
Scattered Clouds
Scattered Clouds
24°
Feels Like: 24°
Wind Chill: 24° Ceiling: Unl
Heat Index: 24° Visibility: 10mi
Dew Point: 19° Wind: 5mph
Humidity: 74% Direction: ° ()
Pressure: 29.88in Gusts: 0mph
Raw Report DataKNYC 280703Z AUTO VRB04KT 10SM SCT026 24/19 A2988 RMK AO2 T02440194
Traffic Incident Summary
Active as of:
Severity:
Category:
InformationThere was an issue retrieving the traffic information for this location. Please try a different location or try again shortly.
Advertisements
Track Severe Weather on mobile